Westview Chinook — VG3278 — position and weather

sailwx.info

Track history (hours):
 
Tides and Currents Weather Stations Pressure Air Temp Water Temp Dewpoint Dewpoint Depression Visibility Wind Speed Wind Dir Waves Ship Positions

Westview Chinook

Last reported at 2014-Aug-20 14:33 UTC. Time now 2014-Aug-20 14:44 UTC.
Position N 49°13' W 122°53'.

Length 16 m; draft 3.5 m.

Type: Towing. MMSI: 316005622.

Date/timePositionNaut miles runAvg speedWind from/ knotsBaromVisibWave heightAir tempDewpointWater temp
2014-Aug-20 14:33N 49°13' W 122°53'0 0.0
2014-Aug-20 13:33N 49°13' W 122°53'1 0.1
2014-Aug-20 09:33N 49°13' W 122°53'4 3.8
2014-Aug-20 08:34N 49°10' W 122°56'6 6.2
2014-Aug-20 07:33N 49°13' W 122°48'5 4.9
2014-Aug-20 06:34N 49°11' W 122°41'2 1.9
2014-Aug-20 05:33N 49°12' W 122°44'6 6.4
2014-Aug-20 04:34N 49°13' W 122°53'2 2.0
2014-Aug-20 03:33N 49°11' W 122°55'0 0.4
2014-Aug-20 02:34N 49°11' W 122°55'6 6.2
2014-Aug-20 01:32N 49°13' W 122°46'1 1.1
2014-Aug-20 00:31N 49°14' W 122°46'1 1.2
2014-Aug-19 23:33N 49°13' W 122°47'1 1.0
2014-Aug-19 22:33N 49°13' W 122°49'4 4.1
2014-Aug-19 21:33N 49°11' W 122°43'1 1.4
2014-Aug-19 20:29N 49°11' W 122°41'0 0.1
2014-Aug-19 19:33N 49°11' W 122°41'0 0.1
2014-Aug-19 18:30N 49°11' W 122°41'0 0.2
2014-Aug-19 17:33N 49°11' W 122°41'4 3.8
2014-Aug-19 16:34N 49°13' W 122°46'5 5.1
2014-Aug-19 15:34N 49°13' W 122°54'4 4.0
2014-Aug-19 14:34N 49°09' W 122°57'3 2.8
2014-Aug-19 13:33N 49°12' W 122°54'0 0.2
2014-Aug-19 12:11N 49°12' W 122°55'2 3.0
2014-Aug-19 11:33N 49°11' W 122°58'0 0.0
2014-Aug-19 10:33N 49°11' W 122°58'1 0.9
2014-Aug-19 09:33N 49°12' W 122°56'2 2.4
2014-Aug-19 08:33N 49°09' W 122°57'4 4.4
2014-Aug-19 07:33N 49°13' W 122°53'6 6.1
2014-Aug-19 06:33N 49°12' W 122°44'0 0.4
2014-Aug-19 05:33N 49°11' W 122°44'0 0.0
2014-Aug-19 04:33N 49°11' W 122°43'5 5.4
2014-Aug-19 03:33N 49°13' W 122°51'6 5.5
2014-Aug-19 02:33N 49°10' W 122°58'2 2.0
2014-Aug-19 01:33N 49°11' W 122°55'2 1.8
2014-Aug-19 00:34N 49°09' W 122°57'0 0.1
2014-Aug-18 23:33N 49°09' W 122°57'6 6.1
2014-Aug-18 22:33N 49°13' W 122°50'6 5.9
2014-Aug-18 21:30N 49°11' W 122°41'1 1.3
2014-Aug-18 20:26N 49°12' W 122°39'2 2.4
2014-Aug-18 19:33N 49°12' W 122°42'3 2.7
2014-Aug-18 18:32N 49°13' W 122°47'4 3.9
2014-Aug-18 17:33N 49°13' W 122°52'2 1.6
2014-Aug-18 16:33N 49°12' W 122°54'2 1.6
2014-Aug-18 15:33N 49°13' W 122°52'7 7.2
2014-Aug-18 14:33N 49°11' W 122°42'1 1.0
2014-Aug-18 13:33N 49°11' W 122°43'3 2.9
2014-Aug-18 12:27N 49°14' W 122°46'0 0.0
2014-Aug-18 04:29N 49°14' W 122°46'0 0.0
2014-Aug-18 02:11N 49°14' W 122°46'0 0.0
2014-Aug-18 01:22N 49°14' W 122°46'0 0.0
2014-Aug-18 00:33N 49°14' W 122°46'0 0.0
2014-Aug-17 09:27N 49°14' W 122°46'2 2.0
2014-Aug-17 08:34N 49°13' W 122°48'7 7.2
2014-Aug-17 07:33N 49°09' W 122°58'7 7.3
2014-Aug-17 06:33N 49°06' W 123°08'8 7.8
2014-Aug-17 05:33N 49°06' W 123°20'4 4.1
2014-Aug-17 04:33N 49°10' W 123°22'5 4.5
2014-Aug-17 03:33N 49°14' W 123°20'3 3.2
2014-Aug-17 02:33N 49°15' W 123°15'2 1.9
2014-Aug-17 01:33N 49°13' W 123°13'4 3.8
2014-Aug-17 00:33N 49°12' W 123°07'2 1.9
2014-Aug-16 23:33N 49°12' W 123°04'0 0.0
2014-Aug-16 22:34N 49°12' W 123°04'0 0.0
2014-Aug-16 21:33N 49°12' W 123°04'0 0.0
2014-Aug-16 20:34N 49°12' W 123°04'0 0.0
2014-Aug-16 19:34N 49°12' W 123°04'0 0.0
2014-Aug-16 18:33N 49°12' W 123°04'4 4.3
2014-Aug-16 17:33N 49°11' W 122°58'2 1.9
2014-Aug-16 16:33N 49°11' W 122°55'1 0.5
2014-Aug-16 15:34N 49°11' W 122°55'5 4.7
2014-Aug-16 14:33N 49°09' W 123°02'3 3.1
2014-Aug-16 13:34N 49°07' W 123°06'4 3.7
2014-Aug-16 12:34N 49°07' W 123°11'3 2.8
2014-Aug-16 11:34N 49°07' W 123°16'2 2.5
2014-Aug-16 10:34N 49°06' W 123°19'5 4.7
2014-Aug-16 09:34N 49°07' W 123°26'6 6.4
2014-Aug-16 08:33N 49°10' W 123°35'7 6.6
2014-Aug-16 07:33N 49°12' W 123°44'2 2.2
2014-Aug-16 06:33N 49°13' W 123°47'9 9.5
2014-Aug-16 05:34N 49°09' W 123°34'10 9.8
2014-Aug-16 04:33N 49°04' W 123°22'9 8.7
2014-Aug-16 03:34N 49°01' W 123°09'0 0.1
2014-Aug-16 02:34N 49°01' W 123°09'1 0.6
2014-Aug-16 01:33N 49°02' W 123°09'0 0.0
2014-Aug-16 00:33N 49°02' W 123°09'0 0.0
2014-Aug-15 23:33N 49°02' W 123°09'0 0.0
2014-Aug-15 22:33N 49°02' W 123°09'0 0.0
2014-Aug-15 21:33N 49°02' W 123°09'3 2.8
2014-Aug-15 20:33N 49°01' W 123°13'8 8.3
2014-Aug-15 19:33N 49°09' W 123°19'7 6.9
2014-Aug-15 18:33N 49°15' W 123°18'2 1.7
2014-Aug-15 17:32N 49°15' W 123°15'0 0.0
2014-Aug-15 16:33N 49°15' W 123°15'0 0.0
2014-Aug-15 15:33N 49°15' W 123°15'4 4.2
2014-Aug-15 14:33N 49°13' W 123°10'2 2.4
2014-Aug-15 13:33N 49°12' W 123°06'1 0.4
2014-Aug-15 11:04N 49°12' W 123°05'2 4.4
2014-Aug-15 10:33N 49°12' W 123°08'6 6.4
2014-Aug-15 09:33N 49°15' W 123°16'2 2.0
2014-Aug-15 08:33N 49°14' W 123°14'1 0.7
2014-Aug-15 07:33N 49°14' W 123°13'1 0.5
2014-Aug-15 06:33N 49°14' W 123°14'3 3.1
2014-Aug-15 05:33N 49°16' W 123°18'4 3.7
2014-Aug-15 04:33N 49°14' W 123°13'0 0.0
2014-Aug-15 03:33N 49°14' W 123°13'2 2.0
2014-Aug-15 02:33N 49°15' W 123°15'0 0.1
2014-Aug-15 01:33N 49°15' W 123°15'3 3.3
2014-Aug-15 00:33N 49°12' W 123°18'6 5.6
2014-Aug-14 23:33N 49°07' W 123°17'8 7.8
2014-Aug-14 22:33N 49°07' W 123°06'6 6.0
2014-Aug-14 21:33N 49°09' W 122°57'7 7.4
2014-Aug-14 20:33N 49°13' W 122°47'2 0.9
2014-Aug-14 18:31N 49°13' W 122°44'6 6.4
2014-Aug-14 17:33N 49°12' W 122°54'2 1.8
2014-Aug-14 16:33N 49°11' W 122°55'5 4.9
2014-Aug-14 15:33N 49°13' W 122°49'6 5.5
2014-Aug-14 14:33N 49°11' W 122°41'0 0.3
2014-Aug-14 13:32N 49°11' W 122°41'5 5.1
2014-Aug-14 12:33N 49°13' W 122°48'5 4.7
2014-Aug-14 11:34N 49°12' W 122°55'2 2.4
2014-Aug-14 10:33N 49°10' W 122°57'4 4.1
2014-Aug-14 09:33N 49°12' W 123°02'4 4.1
2014-Aug-14 08:33N 49°12' W 123°08'3 3.1
2014-Aug-14 07:33N 49°13' W 123°12'5 5.0
2014-Aug-14 06:33N 49°12' W 123°05'4 4.1
2014-Aug-14 05:33N 49°13' W 123°11'5 5.1
2014-Aug-14 04:33N 49°15' W 123°18'2 1.9
2014-Aug-14 03:33N 49°15' W 123°15'3 2.9
2014-Aug-14 02:34N 49°18' W 123°15'8 8.4
2014-Aug-14 01:33N 49°18' W 123°02'1 1.4
2014-Aug-14 00:33N 49°18' W 123°04'2 1.6
2014-Aug-13 23:33N 49°19' W 123°06'0 0.0
2014-Aug-13 22:33N 49°19' W 123°06'0 0.2
2014-Aug-13 21:33N 49°19' W 123°06'1 1.0
2014-Aug-13 20:33N 49°18' W 123°06'7 7.3
2014-Aug-13 19:33N 49°16' W 123°17'7 7.1
2014-Aug-13 18:33N 49°12' W 123°08'3 2.5
2014-Aug-13 17:33N 49°12' W 123°04'2 2.5
2014-Aug-13 16:33N 49°12' W 123°08'6 5.7
2014-Aug-13 15:33N 49°15' W 123°16'7 6.6
2014-Aug-13 14:33N 49°12' W 123°07'7 6.6
2014-Aug-13 13:33N 49°12' W 122°56'7 7.1
2014-Aug-13 12:33N 49°14' W 122°46'0 0.0
2014-Aug-13 11:33N 49°14' W 122°46'3 2.6
2014-Aug-13 10:33N 49°13' W 122°50'5 5.5
2014-Aug-13 09:33N 49°11' W 122°58'1 0.9
2014-Aug-13 08:33N 49°12' W 122°56'1 1.3
2014-Aug-13 07:33N 49°12' W 122°54'2 2.2
2014-Aug-13 06:33N 49°13' W 122°52'2 2.4
2014-Aug-13 05:33N 49°13' W 122°48'7 6.9
2014-Aug-13 04:33N 49°09' W 122°57'3 2.5
2014-Aug-13 03:33N 49°12' W 122°55'5 4.7
2014-Aug-13 02:33N 49°13' W 122°48'1 0.9
2014-Aug-13 01:33N 49°13' W 122°50'3 2.5
2014-Aug-13 00:33N 49°14' W 122°46'1 1.5
2014-Aug-12 23:33N 49°13' W 122°48'6 5.6
2014-Aug-12 22:33N 49°11' W 122°55'5 5.2
2014-Aug-12 21:34N 49°08' W 123°03'3 3.0
2014-Aug-12 20:34N 49°09' W 122°58'9 8.8
2014-Aug-12 19:34N 49°13' W 122°46'4 3.7
2014-Aug-12 18:33N 49°11' W 122°41'4 4.5
2014-Aug-12 17:33N 49°14' W 122°46'0 0.0
2014-Aug-12 16:33N 49°14' W 122°46'0 0.0
2014-Aug-12 15:33N 49°14' W 122°46'0 0.0
2014-Aug-12 14:33N 49°14' W 122°46'0 0.0
2014-Aug-12 13:33N 49°14' W 122°46'0 0.0
2014-Aug-12 12:33N 49°14' W 122°46'1 0.7
2014-Aug-12 11:33N 49°14' W 122°47'7 6.6
2014-Aug-12 10:33N 49°10' W 122°56'2 2.4
2014-Aug-12 09:33N 49°12' W 122°54'6 5.6
2014-Aug-12 08:33N 49°13' W 122°45'4 4.1
2014-Aug-12 07:33N 49°12' W 122°39'3 2.8
2014-Aug-12 06:33N 49°12' W 122°43'3 2.6
2014-Aug-12 05:33N 49°14' W 122°46'3 2.9
2014-Aug-12 04:33N 49°12' W 122°43'6 6.4
2014-Aug-12 03:33N 49°13' W 122°53'2 2.1
2014-Aug-12 02:33N 49°13' W 122°50'4 4.1
2014-Aug-12 01:33N 49°12' W 122°44'2 2.5
2014-Aug-12 00:33N 49°14' W 122°46'1 1.2
2014-Aug-11 23:33N 49°13' W 122°45'6 5.7
2014-Aug-11 22:33N 49°13' W 122°54'5 5.1
2014-Aug-11 21:33N 49°12' W 123°02'4 4.4
2014-Aug-11 20:34N 49°12' W 123°08'0 0.0
2014-Aug-11 19:33N 49°12' W 123°08'0 0.0
2014-Aug-11 18:33N 49°12' W 123°08'0 0.0
2014-Aug-11 17:33N 49°12' W 123°08'5 4.9
2014-Aug-11 16:33N 49°12' W 123°01'6 6.0
2014-Aug-11 15:33N 49°13' W 122°52'7 6.7
2014-Aug-11 14:33N 49°11' W 122°42'0 0.2
2014-Aug-11 13:33N 49°11' W 122°43'4 3.7
2014-Aug-11 12:33N 49°14' W 122°46'0 0.0
2014-Aug-11 11:33N 49°14' W 122°46'0 0.0
2014-Aug-11 10:33N 49°14' W 122°46'4 4.5
2014-Aug-11 09:33N 49°11' W 122°41'1 1.4
2014-Aug-11 08:33N 49°11' W 122°43'2 2.4
2014-Aug-11 07:33N 49°13' W 122°45'3 3.3
2014-Aug-11 06:33N 49°13' W 122°50'2 2.3
2014-Aug-11 05:33N 49°13' W 122°54'3 3.1
2014-Aug-11 04:33N 49°10' W 122°56'4 4.3
2014-Aug-11 03:33N 49°09' W 123°02'5 4.6
2014-Aug-11 02:33N 49°06' W 123°09'5 4.7
2014-Aug-11 01:33N 49°07' W 123°16'4 3.7
2014-Aug-11 00:33N 49°06' W 123°21'4 4.3
2014-Aug-10 23:33N 49°08' W 123°27'5 5.0
2014-Aug-10 22:33N 49°11' W 123°33'5 4.9
2014-Aug-10 21:33N 49°13' W 123°39'5 5.4
2014-Aug-10 20:33N 49°16' W 123°47'5 5.3
2014-Aug-10 19:33N 49°18' W 123°54'6 5.8
2014-Aug-10 18:33N 49°20' W 124°02'6 6.1
2014-Aug-10 17:33N 49°23' W 124°11'3 3.5
2014-Aug-10 16:33N 49°21' W 124°07'5 4.9
2014-Aug-10 15:33N 49°16' W 124°08'  
Track history (hours):
 
Tides and Currents Weather Stations Pressure Air Temp Water Temp Dewpoint Dewpoint Depression Visibility Wind Speed Wind Dir Waves Ship Positions

Westview Chinook

Last reported at 2014-Aug-20 14:33 UTC. Time now 2014-Aug-20 14:44 UTC.
Position N 49°13' W 122°53'.

Length 16 m; draft 3.5 m.

Type: Towing. MMSI: 316005622.

Date/timePositionNaut miles runAvg speedWind from/ knotsBaromVisibWave heightAir tempDewpointWater temp
2014-Aug-20 14:33N 49°13' W 122°53'0 0.0
2014-Aug-20 13:33N 49°13' W 122°53'1 0.1
2014-Aug-20 09:33N 49°13' W 122°53'4 3.8
2014-Aug-20 08:34N 49°10' W 122°56'6 6.2
2014-Aug-20 07:33N 49°13' W 122°48'5 4.9
2014-Aug-20 06:34N 49°11' W 122°41'2 1.9
2014-Aug-20 05:33N 49°12' W 122°44'6 6.4
2014-Aug-20 04:34N 49°13' W 122°53'2 2.0
2014-Aug-20 03:33N 49°11' W 122°55'0 0.4
2014-Aug-20 02:34N 49°11' W 122°55'6 6.2
2014-Aug-20 01:32N 49°13' W 122°46'1 1.1
2014-Aug-20 00:31N 49°14' W 122°46'1 1.2
2014-Aug-19 23:33N 49°13' W 122°47'1 1.0
2014-Aug-19 22:33N 49°13' W 122°49'4 4.1
2014-Aug-19 21:33N 49°11' W 122°43'1 1.4
2014-Aug-19 20:29N 49°11' W 122°41'0 0.1
2014-Aug-19 19:33N 49°11' W 122°41'0 0.1
2014-Aug-19 18:30N 49°11' W 122°41'0 0.2
2014-Aug-19 17:33N 49°11' W 122°41'4 3.8
2014-Aug-19 16:34N 49°13' W 122°46'5 5.1
2014-Aug-19 15:34N 49°13' W 122°54'4 4.0
2014-Aug-19 14:34N 49°09' W 122°57'3 2.8
2014-Aug-19 13:33N 49°12' W 122°54'0 0.2
2014-Aug-19 12:11N 49°12' W 122°55'2 3.0
2014-Aug-19 11:33N 49°11' W 122°58'0 0.0
2014-Aug-19 10:33N 49°11' W 122°58'1 0.9
2014-Aug-19 09:33N 49°12' W 122°56'2 2.4
2014-Aug-19 08:33N 49°09' W 122°57'4 4.4
2014-Aug-19 07:33N 49°13' W 122°53'6 6.1
2014-Aug-19 06:33N 49°12' W 122°44'0 0.4
2014-Aug-19 05:33N 49°11' W 122°44'0 0.0
2014-Aug-19 04:33N 49°11' W 122°43'5 5.4
2014-Aug-19 03:33N 49°13' W 122°51'6 5.5
2014-Aug-19 02:33N 49°10' W 122°58'2 2.0
2014-Aug-19 01:33N 49°11' W 122°55'2 1.8
2014-Aug-19 00:34N 49°09' W 122°57'0 0.1
2014-Aug-18 23:33N 49°09' W 122°57'6 6.1
2014-Aug-18 22:33N 49°13' W 122°50'6 5.9
2014-Aug-18 21:30N 49°11' W 122°41'1 1.3
2014-Aug-18 20:26N 49°12' W 122°39'2 2.4
2014-Aug-18 19:33N 49°12' W 122°42'3 2.7
2014-Aug-18 18:32N 49°13' W 122°47'4 3.9
2014-Aug-18 17:33N 49°13' W 122°52'2 1.6
2014-Aug-18 16:33N 49°12' W 122°54'2 1.6
2014-Aug-18 15:33N 49°13' W 122°52'7 7.2
2014-Aug-18 14:33N 49°11' W 122°42'1 1.0
2014-Aug-18 13:33N 49°11' W 122°43'3 2.9
2014-Aug-18 12:27N 49°14' W 122°46'0 0.0
2014-Aug-18 04:29N 49°14' W 122°46'0 0.0
2014-Aug-18 02:11N 49°14' W 122°46'0 0.0
2014-Aug-18 01:22N 49°14' W 122°46'0 0.0
2014-Aug-18 00:33N 49°14' W 122°46'0 0.0
2014-Aug-17 09:27N 49°14' W 122°46'2 2.0
2014-Aug-17 08:34N 49°13' W 122°48'7 7.2
2014-Aug-17 07:33N 49°09' W 122°58'7 7.3
2014-Aug-17 06:33N 49°06' W 123°08'8 7.8
2014-Aug-17 05:33N 49°06' W 123°20'4 4.1
2014-Aug-17 04:33N 49°10' W 123°22'5 4.5
2014-Aug-17 03:33N 49°14' W 123°20'3 3.2
2014-Aug-17 02:33N 49°15' W 123°15'2 1.9
2014-Aug-17 01:33N 49°13' W 123°13'4 3.8
2014-Aug-17 00:33N 49°12' W 123°07'2 1.9
2014-Aug-16 23:33N 49°12' W 123°04'0 0.0
2014-Aug-16 22:34N 49°12' W 123°04'0 0.0
2014-Aug-16 21:33N 49°12' W 123°04'0 0.0
2014-Aug-16 20:34N 49°12' W 123°04'0 0.0
2014-Aug-16 19:34N 49°12' W 123°04'0 0.0
2014-Aug-16 18:33N 49°12' W 123°04'4 4.3
2014-Aug-16 17:33N 49°11' W 122°58'2 1.9
2014-Aug-16 16:33N 49°11' W 122°55'1 0.5
2014-Aug-16 15:34N 49°11' W 122°55'5 4.7
2014-Aug-16 14:33N 49°09' W 123°02'3 3.1
2014-Aug-16 13:34N 49°07' W 123°06'4 3.7
2014-Aug-16 12:34N 49°07' W 123°11'3 2.8
2014-Aug-16 11:34N 49°07' W 123°16'2 2.5
2014-Aug-16 10:34N 49°06' W 123°19'5 4.7
2014-Aug-16 09:34N 49°07' W 123°26'6 6.4
2014-Aug-16 08:33N 49°10' W 123°35'7 6.6
2014-Aug-16 07:33N 49°12' W 123°44'2 2.2
2014-Aug-16 06:33N 49°13' W 123°47'9 9.5
2014-Aug-16 05:34N 49°09' W 123°34'10 9.8
2014-Aug-16 04:33N 49°04' W 123°22'9 8.7
2014-Aug-16 03:34N 49°01' W 123°09'0 0.1
2014-Aug-16 02:34N 49°01' W 123°09'1 0.6
2014-Aug-16 01:33N 49°02' W 123°09'0 0.0
2014-Aug-16 00:33N 49°02' W 123°09'0 0.0
2014-Aug-15 23:33N 49°02' W 123°09'0 0.0
2014-Aug-15 22:33N 49°02' W 123°09'0 0.0
2014-Aug-15 21:33N 49°02' W 123°09'3 2.8
2014-Aug-15 20:33N 49°01' W 123°13'8 8.3
2014-Aug-15 19:33N 49°09' W 123°19'7 6.9
2014-Aug-15 18:33N 49°15' W 123°18'2 1.7
2014-Aug-15 17:32N 49°15' W 123°15'0 0.0
2014-Aug-15 16:33N 49°15' W 123°15'0 0.0
2014-Aug-15 15:33N 49°15' W 123°15'4 4.2
2014-Aug-15 14:33N 49°13' W 123°10'2 2.4
2014-Aug-15 13:33N 49°12' W 123°06'1 0.4
2014-Aug-15 11:04N 49°12' W 123°05'2 4.4
2014-Aug-15 10:33N 49°12' W 123°08'6 6.4
2014-Aug-15 09:33N 49°15' W 123°16'2 2.0
2014-Aug-15 08:33N 49°14' W 123°14'1 0.7
2014-Aug-15 07:33N 49°14' W 123°13'1 0.5
2014-Aug-15 06:33N 49°14' W 123°14'3 3.1
2014-Aug-15 05:33N 49°16' W 123°18'4 3.7
2014-Aug-15 04:33N 49°14' W 123°13'0 0.0
2014-Aug-15 03:33N 49°14' W 123°13'2 2.0
2014-Aug-15 02:33N 49°15' W 123°15'0 0.1
2014-Aug-15 01:33N 49°15' W 123°15'3 3.3
2014-Aug-15 00:33N 49°12' W 123°18'6 5.6
2014-Aug-14 23:33N 49°07' W 123°17'8 7.8
2014-Aug-14 22:33N 49°07' W 123°06'6 6.0
2014-Aug-14 21:33N 49°09' W 122°57'7 7.4
2014-Aug-14 20:33N 49°13' W 122°47'2 0.9
2014-Aug-14 18:31N 49°13' W 122°44'6 6.4
2014-Aug-14 17:33N 49°12' W 122°54'2 1.8
2014-Aug-14 16:33N 49°11' W 122°55'5 4.9
2014-Aug-14 15:33N 49°13' W 122°49'6 5.5
2014-Aug-14 14:33N 49°11' W 122°41'0 0.3
2014-Aug-14 13:32N 49°11' W 122°41'5 5.1
2014-Aug-14 12:33N 49°13' W 122°48'5 4.7
2014-Aug-14 11:34N 49°12' W 122°55'2 2.4
2014-Aug-14 10:33N 49°10' W 122°57'4 4.1
2014-Aug-14 09:33N 49°12' W 123°02'4 4.1
2014-Aug-14 08:33N 49°12' W 123°08'3 3.1
2014-Aug-14 07:33N 49°13' W 123°12'5 5.0
2014-Aug-14 06:33N 49°12' W 123°05'4 4.1
2014-Aug-14 05:33N 49°13' W 123°11'5 5.1
2014-Aug-14 04:33N 49°15' W 123°18'2 1.9
2014-Aug-14 03:33N 49°15' W 123°15'3 2.9
2014-Aug-14 02:34N 49°18' W 123°15'8 8.4
2014-Aug-14 01:33N 49°18' W 123°02'1 1.4
2014-Aug-14 00:33N 49°18' W 123°04'2 1.6
2014-Aug-13 23:33N 49°19' W 123°06'0 0.0
2014-Aug-13 22:33N 49°19' W 123°06'0 0.2
2014-Aug-13 21:33N 49°19' W 123°06'1 1.0
2014-Aug-13 20:33N 49°18' W 123°06'7 7.3
2014-Aug-13 19:33N 49°16' W 123°17'7 7.1
2014-Aug-13 18:33N 49°12' W 123°08'3 2.5
2014-Aug-13 17:33N 49°12' W 123°04'2 2.5
2014-Aug-13 16:33N 49°12' W 123°08'6 5.7
2014-Aug-13 15:33N 49°15' W 123°16'7 6.6
2014-Aug-13 14:33N 49°12' W 123°07'7 6.6
2014-Aug-13 13:33N 49°12' W 122°56'7 7.1
2014-Aug-13 12:33N 49°14' W 122°46'0 0.0
2014-Aug-13 11:33N 49°14' W 122°46'3 2.6
2014-Aug-13 10:33N 49°13' W 122°50'5 5.5
2014-Aug-13 09:33N 49°11' W 122°58'1 0.9
2014-Aug-13 08:33N 49°12' W 122°56'1 1.3
2014-Aug-13 07:33N 49°12' W 122°54'2 2.2
2014-Aug-13 06:33N 49°13' W 122°52'2 2.4
2014-Aug-13 05:33N 49°13' W 122°48'7 6.9
2014-Aug-13 04:33N 49°09' W 122°57'3 2.5
2014-Aug-13 03:33N 49°12' W 122°55'5 4.7
2014-Aug-13 02:33N 49°13' W 122°48'1 0.9
2014-Aug-13 01:33N 49°13' W 122°50'3 2.5
2014-Aug-13 00:33N 49°14' W 122°46'1 1.5
2014-Aug-12 23:33N 49°13' W 122°48'6 5.6
2014-Aug-12 22:33N 49°11' W 122°55'5 5.2
2014-Aug-12 21:34N 49°08' W 123°03'3 3.0
2014-Aug-12 20:34N 49°09' W 122°58'9 8.8
2014-Aug-12 19:34N 49°13' W 122°46'4 3.7
2014-Aug-12 18:33N 49°11' W 122°41'4 4.5
2014-Aug-12 17:33N 49°14' W 122°46'0 0.0
2014-Aug-12 16:33N 49°14' W 122°46'0 0.0
2014-Aug-12 15:33N 49°14' W 122°46'0 0.0
2014-Aug-12 14:33N 49°14' W 122°46'0 0.0
2014-Aug-12 13:33N 49°14' W 122°46'0 0.0
2014-Aug-12 12:33N 49°14' W 122°46'1 0.7
2014-Aug-12 11:33N 49°14' W 122°47'7 6.6
2014-Aug-12 10:33N 49°10' W 122°56'2 2.4
2014-Aug-12 09:33N 49°12' W 122°54'6 5.6
2014-Aug-12 08:33N 49°13' W 122°45'4 4.1
2014-Aug-12 07:33N 49°12' W 122°39'3 2.8
2014-Aug-12 06:33N 49°12' W 122°43'3 2.6
2014-Aug-12 05:33N 49°14' W 122°46'3 2.9
2014-Aug-12 04:33N 49°12' W 122°43'6 6.4
2014-Aug-12 03:33N 49°13' W 122°53'2 2.1
2014-Aug-12 02:33N 49°13' W 122°50'4 4.1
2014-Aug-12 01:33N 49°12' W 122°44'2 2.5
2014-Aug-12 00:33N 49°14' W 122°46'1 1.2
2014-Aug-11 23:33N 49°13' W 122°45'6 5.7
2014-Aug-11 22:33N 49°13' W 122°54'5 5.1
2014-Aug-11 21:33N 49°12' W 123°02'4 4.4
2014-Aug-11 20:34N 49°12' W 123°08'0 0.0
2014-Aug-11 19:33N 49°12' W 123°08'0 0.0
2014-Aug-11 18:33N 49°12' W 123°08'0 0.0
2014-Aug-11 17:33N 49°12' W 123°08'5 4.9
2014-Aug-11 16:33N 49°12' W 123°01'6 6.0
2014-Aug-11 15:33N 49°13' W 122°52'7 6.7
2014-Aug-11 14:33N 49°11' W 122°42'0 0.2
2014-Aug-11 13:33N 49°11' W 122°43'4 3.7
2014-Aug-11 12:33N 49°14' W 122°46'0 0.0
2014-Aug-11 11:33N 49°14' W 122°46'0 0.0
2014-Aug-11 10:33N 49°14' W 122°46'4 4.5
2014-Aug-11 09:33N 49°11' W 122°41'1 1.4
2014-Aug-11 08:33N 49°11' W 122°43'2 2.4
2014-Aug-11 07:33N 49°13' W 122°45'3 3.3
2014-Aug-11 06:33N 49°13' W 122°50'2 2.3
2014-Aug-11 05:33N 49°13' W 122°54'3 3.1
2014-Aug-11 04:33N 49°10' W 122°56'4 4.3
2014-Aug-11 03:33N 49°09' W 123°02'5 4.6
2014-Aug-11 02:33N 49°06' W 123°09'5 4.7
2014-Aug-11 01:33N 49°07' W 123°16'4 3.7
2014-Aug-11 00:33N 49°06' W 123°21'4 4.3
2014-Aug-10 23:33N 49°08' W 123°27'5 5.0
2014-Aug-10 22:33N 49°11' W 123°33'5 4.9
2014-Aug-10 21:33N 49°13' W 123°39'5 5.4
2014-Aug-10 20:33N 49°16' W 123°47'5 5.3
2014-Aug-10 19:33N 49°18' W 123°54'6 5.8
2014-Aug-10 18:33N 49°20' W 124°02'6 6.1
2014-Aug-10 17:33N 49°23' W 124°11'3 3.5
2014-Aug-10 16:33N 49°21' W 124°07'5 4.9
2014-Aug-10 15:33N 49°16' W 124°08'  

Dump ship's entire track history